createdAt,value
2022-11-06T00:01:47.117Z,1.89
2022-11-06T00:04:13.663Z,1.92
2022-11-06T00:06:49.093Z,1.88
2022-11-06T00:09:20.580Z,1.87
2022-11-06T00:11:48.607Z,1.82
2022-11-06T00:14:18.116Z,1.82
2022-11-06T00:16:45.904Z,1.80
2022-11-06T00:19:13.125Z,1.79
2022-11-06T00:21:40.210Z,1.78
2022-11-06T00:24:08.425Z,1.80
2022-11-06T00:26:35.667Z,1.79
2022-11-06T00:29:03.619Z,1.79
2022-11-06T00:31:32.996Z,1.84
2022-11-06T00:34:00.876Z,1.85
2022-11-06T00:36:30.615Z,1.89
2022-11-06T00:39:00.321Z,1.84
2022-11-06T00:41:27.903Z,1.84
2022-11-06T00:43:57.353Z,1.84
2022-11-06T00:46:24.311Z,1.84
2022-11-06T00:48:52.784Z,1.82
2022-11-06T00:51:22.315Z,1.78
2022-11-06T00:53:53.500Z,1.76
2022-11-06T00:56:20.550Z,1.70
2022-11-06T00:58:47.724Z,1.65
2022-11-06T01:01:18.793Z,1.63
2022-11-06T01:03:47.379Z,1.58
2022-11-06T01:06:20.638Z,1.53
2022-11-06T01:08:47.860Z,1.48
2022-11-06T01:11:25.005Z,1.42
2022-11-06T01:13:53.773Z,1.37
2022-11-06T01:16:21.116Z,1.33
2022-11-06T01:18:48.156Z,1.29
2022-11-06T01:21:26.747Z,1.28
2022-11-06T01:24:02.333Z,1.26
2022-11-06T01:26:38.218Z,1.24
2022-11-06T01:29:10.741Z,1.20
2022-11-06T01:31:37.206Z,1.17
2022-11-06T01:34:04.148Z,1.14
2022-11-06T01:36:31.478Z,1.08
2022-11-06T01:39:01.735Z,1.02
2022-11-06T01:41:49.622Z,0.99
2022-11-06T01:44:40.891Z,0.96
2022-11-06T01:47:23.440Z,0.98
2022-11-06T01:49:52.714Z,1.02
2022-11-06T01:52:22.842Z,1.03
2022-11-06T01:54:54.493Z,0.99
2022-11-06T01:57:21.608Z,1.00
2022-11-06T01:59:50.532Z,0.98
2022-11-06T02:02:17.958Z,0.98
2022-11-06T02:04:48.285Z,0.94
2022-11-06T02:07:20.178Z,0.99
2022-11-06T02:09:50.355Z,0.97
2022-11-06T02:12:40.383Z,0.96
2022-11-06T02:15:36.970Z,0.97
2022-11-06T02:18:11.824Z,0.97
2022-11-06T02:21:20.622Z,0.94
2022-11-06T02:24:05.909Z,0.97
2022-11-06T02:26:56.742Z,0.98
2022-11-06T02:29:31.155Z,1.01
2022-11-06T02:32:00.950Z,1.04
2022-11-06T02:34:28.320Z,1.06
2022-11-06T02:37:10.386Z,1.05
2022-11-06T02:39:42.760Z,1.07
2022-11-06T02:42:12.812Z,1.07
2022-11-06T02:44:40.725Z,1.06
2022-11-06T02:47:10.609Z,1.08
2022-11-06T02:49:45.083Z,1.09
2022-11-06T02:52:17.271Z,1.07
2022-11-06T02:54:51.317Z,1.05
2022-11-06T02:57:20.903Z,1.03
2022-11-06T03:00:03.176Z,1.05
2022-11-06T03:02:42.402Z,1.09
2022-11-06T03:05:21.720Z,1.08
2022-11-06T03:08:06.898Z,1.07
2022-11-06T03:10:43.674Z,1.06
2022-11-06T03:13:43.560Z,1.06
2022-11-06T03:16:28.921Z,1.06
2022-11-06T03:19:12.583Z,1.09
2022-11-06T03:22:12.576Z,1.14
2022-11-06T03:24:55.887Z,1.20
2022-11-06T03:27:36.906Z,1.25
2022-11-06T03:30:11.344Z,1.29
2022-11-06T03:32:55.616Z,1.29
2022-11-06T03:35:38.622Z,1.31
2022-11-06T03:38:13.102Z,1.36
2022-11-06T03:40:52.118Z,1.39
2022-11-06T03:43:31.912Z,1.40
2022-11-06T03:46:00.833Z,1.47
2022-11-06T03:48:36.612Z,1.51
2022-11-06T03:51:06.176Z,1.48
2022-11-06T03:53:41.789Z,1.41
2022-11-06T03:56:23.854Z,1.51
2022-11-06T03:58:50.884Z,1.64
2022-11-06T04:01:24.690Z,1.75
2022-11-06T04:04:07.374Z,1.80
2022-11-06T04:06:49.178Z,1.97
2022-11-06T04:09:36.571Z,2.07
2022-11-06T04:12:23.544Z,2.12
2022-11-06T04:14:52.776Z,1.78
2022-11-06T04:17:22.508Z,1.65
2022-11-06T04:19:53.531Z,1.97
2022-11-06T04:22:43.919Z,2.10
2022-11-06T04:25:53.950Z,2.28
2022-11-06T04:28:39.647Z,2.40
2022-11-06T04:31:17.188Z,2.44
2022-11-06T04:33:49.385Z,2.52
2022-11-06T04:36:24.872Z,2.62
2022-11-06T04:39:01.825Z,2.70
2022-11-06T04:41:48.572Z,2.75
2022-11-06T04:44:37.231Z,2.77
2022-11-06T04:47:07.608Z,2.81
2022-11-06T04:49:37.230Z,2.81
2022-11-06T04:52:08.589Z,2.81
2022-11-06T04:54:36.129Z,2.80
2022-11-06T04:57:03.794Z,2.77
2022-11-06T04:59:35.637Z,2.76
2022-11-06T05:02:02.864Z,2.75
2022-11-06T05:04:32.600Z,2.74
2022-11-06T05:07:05.188Z,2.74
2022-11-06T05:09:31.683Z,2.76
2022-11-06T05:11:58.196Z,2.76
2022-11-06T05:14:24.683Z,2.73
2022-11-06T05:16:51.815Z,2.73
2022-11-06T05:19:18.270Z,2.71
2022-11-06T05:22:03.199Z,2.71
2022-11-06T05:24:29.731Z,2.69
2022-11-06T05:26:59.416Z,2.65
2022-11-06T05:29:28.626Z,2.66
2022-11-06T05:31:55.167Z,2.67
2022-11-06T05:34:21.860Z,2.67
2022-11-06T05:36:48.333Z,2.67
2022-11-06T05:39:15.077Z,2.67
2022-11-06T05:41:41.770Z,2.67
2022-11-06T05:44:11.341Z,2.68
2022-11-06T05:46:53.075Z,2.68
2022-11-06T05:49:19.704Z,2.70
2022-11-06T05:51:46.907Z,2.71
2022-11-06T05:54:13.435Z,2.71
2022-11-06T05:56:40.067Z,2.72
2022-11-06T05:59:06.831Z,2.73
2022-11-06T06:01:33.743Z,2.75
2022-11-06T06:04:02.723Z,2.79
2022-11-06T06:06:29.452Z,2.80
2022-11-06T06:08:56.022Z,2.80
2022-11-06T06:11:22.536Z,2.82
2022-11-06T06:13:52.669Z,2.84
2022-11-06T06:16:19.242Z,2.85
2022-11-06T06:18:48.364Z,2.86
2022-11-06T06:21:14.841Z,2.89
2022-11-06T06:23:41.817Z,2.90
2022-11-06T06:26:11.441Z,2.91
2022-11-06T06:28:38.035Z,2.93
2022-11-06T06:31:06.008Z,2.95
2022-11-06T06:33:36.049Z,2.96
2022-11-06T06:36:04.475Z,2.97
2022-11-06T06:38:31.131Z,2.99
2022-11-06T06:41:04.344Z,3.02
2022-11-06T06:43:30.851Z,3.04
2022-11-06T06:45:59.462Z,3.07
2022-11-06T06:48:26.203Z,3.12
2022-11-06T06:50:52.967Z,3.13
2022-11-06T06:53:19.621Z,3.16
2022-11-06T06:55:46.167Z,3.18
2022-11-06T06:58:17.730Z,3.20
2022-11-06T07:00:45.232Z,3.21
2022-11-06T07:03:12.139Z,3.23
2022-11-06T07:05:39.500Z,3.25
2022-11-06T07:08:06.036Z,3.30
2022-11-06T07:10:32.848Z,3.31
2022-11-06T07:13:03.693Z,3.35
2022-11-06T07:15:30.355Z,3.37
2022-11-06T07:18:05.462Z,3.37
2022-11-06T07:20:32.590Z,3.41
2022-11-06T07:22:59.547Z,3.43
2022-11-06T07:25:26.353Z,3.46
2022-11-06T07:27:52.814Z,3.47
2022-11-06T07:30:19.332Z,3.50
2022-11-06T07:32:46.029Z,3.53
2022-11-06T07:35:12.527Z,3.56
2022-11-06T07:37:39.039Z,3.57
2022-11-06T07:40:06.215Z,3.59
2022-11-06T07:42:32.680Z,3.61
2022-11-06T07:44:59.300Z,3.63
2022-11-06T07:47:29.438Z,3.64
2022-11-06T07:49:56.214Z,3.64
2022-11-06T07:52:22.802Z,3.65
2022-11-06T07:54:49.378Z,3.65
2022-11-06T07:57:19.762Z,3.67
2022-11-06T07:59:46.277Z,3.67
2022-11-06T08:02:19.035Z,3.68
2022-11-06T08:04:48.560Z,3.74
2022-11-06T08:07:15.044Z,3.77
2022-11-06T08:09:41.557Z,3.79
2022-11-06T08:12:08.141Z,3.83
2022-11-06T08:14:40.129Z,3.83
2022-11-06T08:17:12.160Z,3.79
2022-11-06T08:19:38.705Z,3.77
2022-11-06T08:22:05.497Z,3.77
2022-11-06T08:24:32.134Z,3.80
2022-11-06T08:26:59.616Z,3.81
2022-11-06T08:29:27.994Z,3.81
2022-11-06T08:31:54.610Z,3.83
2022-11-06T08:34:21.268Z,3.88
2022-11-06T08:36:50.285Z,3.90
2022-11-06T08:39:16.791Z,3.95
2022-11-06T08:41:45.020Z,3.95
2022-11-06T08:44:11.510Z,3.98
2022-11-06T08:46:37.979Z,3.98
2022-11-06T08:49:06.334Z,3.99
2022-11-06T08:51:32.804Z,3.99
2022-11-06T08:53:59.667Z,4.02
2022-11-06T08:56:26.206Z,4.06
2022-11-06T08:58:55.483Z,4.05
2022-11-06T09:01:24.261Z,4.07
2022-11-06T09:03:50.927Z,4.09
2022-11-06T09:06:19.449Z,4.17
2022-11-06T09:08:45.890Z,4.18
2022-11-06T09:11:13.091Z,4.20
2022-11-06T09:13:39.635Z,4.23
2022-11-06T09:16:11.323Z,4.26
2022-11-06T09:18:41.191Z,4.26
2022-11-06T09:21:07.743Z,4.25
2022-11-06T09:23:34.835Z,4.23
2022-11-06T09:26:01.305Z,4.28
2022-11-06T09:28:27.798Z,4.33
2022-11-06T09:30:57.570Z,4.36
2022-11-06T09:33:24.122Z,4.41
2022-11-06T09:35:50.615Z,4.42
2022-11-06T09:38:17.141Z,4.46
2022-11-06T09:41:04.064Z,4.53
2022-11-06T09:44:09.232Z,4.55
2022-11-06T09:46:47.905Z,4.64
2022-11-06T09:49:27.017Z,4.67
2022-11-06T09:52:19.059Z,4.74
2022-11-06T09:55:01.635Z,4.79
2022-11-06T09:57:37.232Z,4.90
2022-11-06T10:00:06.924Z,4.99
2022-11-06T10:02:51.741Z,5.14
2022-11-06T10:05:23.143Z,5.31
2022-11-06T10:07:52.380Z,5.63
2022-11-06T10:10:23.142Z,5.77
2022-11-06T10:12:55.654Z,5.73
2022-11-06T10:15:43.280Z,6.45
2022-11-06T10:18:23.356Z,6.90
2022-11-06T10:20:55.133Z,7.05
2022-11-06T10:23:33.363Z,7.02
2022-11-06T10:26:09.748Z,7.19
2022-11-06T10:29:00.784Z,7.31
2022-11-06T10:32:13.863Z,7.24
2022-11-06T10:34:46.998Z,7.06
2022-11-06T10:37:22.813Z,7.02
2022-11-06T10:39:49.654Z,7.06
2022-11-06T10:42:22.555Z,7.55
2022-11-06T10:44:56.784Z,7.62
2022-11-06T10:47:29.959Z,7.71
2022-11-06T10:50:01.541Z,7.51
2022-11-06T10:52:55.110Z,8.06
2022-11-06T10:55:24.637Z,8.37
2022-11-06T10:58:02.689Z,8.57
2022-11-06T11:00:29.697Z,8.48
2022-11-06T11:02:59.216Z,8.47
2022-11-06T11:05:31.517Z,7.83
2022-11-06T11:07:58.105Z,7.80
2022-11-06T11:10:24.529Z,7.53
2022-11-06T11:12:56.640Z,7.52
2022-11-06T11:15:25.989Z,7.61
2022-11-06T11:18:20.611Z,7.36
2022-11-06T11:20:49.402Z,7.65
2022-11-06T11:23:26.718Z,7.77
2022-11-06T11:25:57.952Z,7.72
2022-11-06T11:28:41.966Z,7.72
2022-11-06T11:31:14.732Z,7.75
2022-11-06T11:33:49.844Z,7.87
2022-11-06T11:36:16.600Z,8.06
2022-11-06T11:38:44.037Z,8.43
2022-11-06T11:41:19.532Z,7.90
2022-11-06T11:44:07.391Z,7.80
2022-11-06T11:46:38.551Z,8.08
2022-11-06T11:49:05.543Z,8.04
2022-11-06T11:51:48.985Z,7.79
2022-11-06T11:54:21.695Z,7.70
2022-11-06T11:57:09.808Z,7.74
2022-11-06T12:00:00.273Z,7.90
2022-11-06T12:02:36.681Z,8.10
2022-11-06T12:05:12.442Z,7.82
2022-11-06T12:07:46.447Z,7.58
2022-11-06T12:10:36.235Z,7.56
2022-11-06T12:13:20.201Z,7.40
2022-11-06T12:16:08.804Z,7.34
2022-11-06T12:18:42.766Z,7.23
2022-11-06T12:21:21.068Z,7.23
2022-11-06T12:24:03.613Z,7.17
2022-11-06T12:26:37.229Z,7.11
2022-11-06T12:29:15.980Z,7.02
2022-11-06T12:31:48.165Z,6.98
2022-11-06T12:35:03.857Z,6.88
2022-11-06T12:37:40.884Z,6.80
2022-11-06T12:40:11.320Z,6.69
2022-11-06T12:42:39.829Z,6.65
2022-11-06T12:45:12.205Z,6.64
2022-11-06T12:47:47.695Z,6.63
2022-11-06T12:50:32.532Z,6.61
2022-11-06T12:53:37.961Z,6.56
2022-11-06T12:56:53.911Z,6.50
2022-11-06T12:59:31.165Z,6.52
2022-11-06T13:02:15.302Z,6.51
2022-11-06T13:05:17.290Z,6.55
2022-11-06T13:07:59.326Z,6.58
2022-11-06T13:10:59.202Z,6.57
2022-11-06T13:13:54.630Z,6.80
2022-11-06T13:17:05.536Z,7.14
2022-11-06T13:19:54.486Z,7.17
2022-11-06T13:22:31.433Z,7.21
2022-11-06T13:25:13.034Z,7.28
2022-11-06T13:27:50.627Z,7.19
2022-11-06T13:30:23.125Z,7.28
2022-11-06T13:33:15.043Z,7.29
2022-11-06T13:35:44.331Z,7.23
2022-11-06T13:38:33.570Z,7.28
2022-11-06T13:41:05.498Z,7.31
2022-11-06T13:43:37.635Z,7.20
2022-11-06T13:46:39.751Z,7.08
2022-11-06T13:49:56.949Z,7.04
2022-11-06T13:52:44.377Z,7.01
2022-11-06T13:55:33.108Z,6.94
2022-11-06T13:58:20.424Z,6.97
2022-11-06T14:01:18.949Z,7.05
2022-11-06T14:04:07.061Z,7.01
2022-11-06T14:06:36.250Z,6.96
2022-11-06T14:09:13.575Z,7.03
2022-11-06T14:11:43.231Z,6.99
2022-11-06T14:14:24.934Z,6.94
2022-11-06T14:17:12.120Z,6.88
2022-11-06T14:19:47.644Z,6.84
2022-11-06T14:22:33.991Z,6.84
2022-11-06T14:25:02.287Z,6.84
2022-11-06T14:27:29.185Z,6.86
2022-11-06T14:29:58.589Z,6.93
2022-11-06T14:32:32.879Z,6.99
2022-11-06T14:35:33.984Z,7.07
2022-11-06T14:38:09.646Z,7.12
2022-11-06T14:40:39.627Z,7.14
2022-11-06T14:43:27.703Z,7.16
2022-11-06T14:45:56.220Z,7.19
2022-11-06T14:48:48.548Z,7.14
2022-11-06T14:51:15.877Z,7.10
2022-11-06T14:53:45.317Z,7.03
2022-11-06T14:56:21.824Z,7.00
2022-11-06T14:59:10.355Z,6.92
2022-11-06T15:01:39.598Z,6.87
2022-11-06T15:04:12.097Z,6.86
2022-11-06T15:06:43.850Z,6.82
2022-11-06T15:09:35.450Z,6.75
2022-11-06T15:12:09.449Z,6.71
2022-11-06T15:14:52.137Z,6.66
2022-11-06T15:17:22.910Z,6.63
2022-11-06T15:20:06.209Z,6.60
2022-11-06T15:22:43.539Z,6.59
2022-11-06T15:25:16.071Z,6.58
2022-11-06T15:27:58.487Z,6.58
2022-11-06T15:30:26.676Z,6.57
2022-11-06T15:32:56.133Z,6.57
2022-11-06T15:35:28.251Z,6.54
2022-11-06T15:38:03.465Z,6.54
2022-11-06T15:40:37.732Z,6.52
2022-11-06T15:43:31.143Z,6.50
2022-11-06T15:46:07.384Z,6.50
2022-11-06T15:48:34.852Z,6.49
2022-11-06T15:51:01.505Z,6.49
2022-11-06T15:53:39.727Z,6.48
2022-11-06T15:56:09.240Z,6.44
2022-11-06T15:58:42.509Z,6.45
2022-11-06T16:01:11.886Z,6.43
2022-11-06T16:03:52.274Z,6.42
2022-11-06T16:06:20.294Z,6.41
2022-11-06T16:08:50.369Z,6.41
2022-11-06T16:11:19.736Z,6.42
2022-11-06T16:13:46.955Z,6.40
2022-11-06T16:16:37.128Z,6.39
2022-11-06T16:19:07.074Z,6.40
2022-11-06T16:21:35.765Z,6.39
2022-11-06T16:24:11.359Z,6.37
2022-11-06T16:26:44.564Z,6.40
2022-11-06T16:29:19.681Z,6.36
2022-11-06T16:31:48.346Z,6.36
2022-11-06T16:34:36.359Z,6.32
2022-11-06T16:37:29.694Z,6.31
2022-11-06T16:39:59.575Z,6.28
2022-11-06T16:42:33.127Z,6.28
2022-11-06T16:45:17.894Z,6.28
2022-11-06T16:48:06.858Z,6.24
2022-11-06T16:50:48.870Z,6.19
2022-11-06T16:53:24.769Z,6.17
2022-11-06T16:56:08.378Z,6.16
2022-11-06T16:58:46.570Z,6.15
2022-11-06T17:01:20.369Z,6.16
2022-11-06T17:03:53.829Z,6.15
2022-11-06T17:06:32.963Z,6.14
2022-11-06T17:09:09.420Z,6.15
2022-11-06T17:11:36.966Z,6.15
2022-11-06T17:14:22.753Z,6.16
2022-11-06T17:16:52.003Z,6.17
2022-11-06T17:19:21.472Z,6.18
2022-11-06T17:21:50.660Z,6.19
2022-11-06T17:24:36.095Z,6.20
2022-11-06T17:27:03.487Z,6.21
2022-11-06T17:29:30.161Z,6.23
2022-11-06T17:31:58.918Z,6.25
2022-11-06T17:34:25.556Z,6.25
2022-11-06T17:36:52.096Z,6.23
2022-11-06T17:39:18.570Z,6.20
2022-11-06T17:41:46.857Z,6.22
2022-11-06T17:44:16.938Z,6.22
2022-11-06T17:46:46.202Z,6.23
2022-11-06T17:49:17.482Z,6.23
2022-11-06T17:51:52.770Z,6.24
2022-11-06T17:54:21.989Z,6.26
2022-11-06T17:56:53.659Z,6.26
2022-11-06T17:59:20.671Z,6.28
2022-11-06T18:01:58.954Z,6.31
2022-11-06T18:04:36.346Z,6.30
2022-11-06T18:07:02.903Z,6.29
2022-11-06T18:09:30.092Z,6.28
2022-11-06T18:11:56.924Z,6.25
2022-11-06T18:14:25.550Z,6.24
2022-11-06T18:16:52.740Z,6.22
2022-11-06T18:19:21.736Z,6.19
2022-11-06T18:21:48.628Z,6.22
2022-11-06T18:24:23.692Z,6.23
2022-11-06T18:29:41.118Z,6.25
2022-11-06T18:32:07.858Z,6.25
2022-11-06T18:34:34.591Z,6.24
2022-11-06T18:37:01.260Z,6.24
2022-11-06T18:39:27.783Z,6.20
2022-11-06T18:41:57.705Z,6.15
2022-11-06T18:44:30.738Z,6.12
2022-11-06T18:46:57.265Z,6.11
2022-11-06T18:49:23.775Z,6.09
2022-11-06T18:51:52.557Z,6.07
2022-11-06T18:54:19.029Z,6.05
2022-11-06T18:56:45.656Z,6.02
2022-11-06T18:59:15.486Z,5.98
2022-11-06T19:01:46.162Z,5.96
2022-11-06T19:04:12.945Z,5.93
2022-11-06T19:06:42.352Z,5.92
2022-11-06T19:09:11.178Z,5.91
2022-11-06T19:11:37.844Z,5.89
2022-11-06T19:14:06.286Z,5.88
2022-11-06T19:16:32.812Z,5.88
2022-11-06T19:21:36.748Z,5.90
2022-11-06T19:24:05.836Z,5.90
2022-11-06T19:26:35.690Z,5.91
2022-11-06T19:29:06.306Z,5.93
2022-11-06T19:31:34.108Z,5.93
2022-11-06T19:34:02.167Z,5.95
2022-11-06T19:36:29.667Z,5.98
2022-11-06T19:38:58.673Z,5.99
2022-11-06T19:41:26.561Z,5.97
2022-11-06T19:43:55.428Z,5.97
2022-11-06T19:46:26.960Z,6.01
2022-11-06T19:48:56.163Z,6.01
2022-11-06T19:51:22.924Z,6.00
2022-11-06T19:53:53.243Z,6.02
2022-11-06T19:56:20.632Z,6.05
2022-11-06T19:58:50.320Z,6.06
2022-11-06T20:01:16.946Z,6.07
2022-11-06T20:03:45.805Z,6.09
2022-11-06T20:06:15.135Z,6.09
2022-11-06T20:08:41.932Z,6.12
2022-11-06T20:11:13.967Z,6.12
2022-11-06T20:13:42.339Z,6.13
2022-11-06T20:16:20.191Z,6.13
2022-11-06T20:18:56.389Z,6.11
2022-11-06T20:21:26.415Z,6.11
2022-11-06T20:23:52.900Z,6.10
2022-11-06T20:26:19.914Z,6.09
2022-11-06T20:28:48.396Z,6.10
2022-11-06T20:31:19.087Z,6.10
2022-11-06T20:33:48.223Z,6.10
2022-11-06T20:36:23.819Z,6.12
2022-11-06T20:38:52.606Z,6.15
2022-11-06T20:41:19.842Z,6.14
2022-11-06T20:43:46.599Z,6.14
2022-11-06T20:46:22.396Z,6.14
2022-11-06T20:48:49.796Z,6.15
2022-11-06T20:51:23.132Z,6.15
2022-11-06T20:53:50.839Z,6.16
2022-11-06T20:56:20.560Z,6.17
2022-11-06T20:58:48.019Z,6.20
2022-11-06T21:01:21.539Z,6.21
2022-11-06T21:03:49.883Z,6.22
2022-11-06T21:06:18.025Z,6.23
2022-11-06T21:08:47.706Z,6.23
2022-11-06T21:11:24.304Z,6.24
2022-11-06T21:13:55.195Z,6.22
2022-11-06T21:16:33.895Z,6.24
2022-11-06T21:19:03.420Z,6.22
2022-11-06T21:21:33.215Z,6.20
2022-11-06T21:24:02.162Z,6.17
2022-11-06T21:26:40.541Z,6.19
2022-11-06T21:29:10.811Z,6.21
2022-11-06T21:31:43.972Z,6.20
2022-11-06T21:34:14.430Z,6.21
2022-11-06T21:36:40.927Z,6.21
2022-11-06T21:39:12.494Z,6.22
2022-11-06T21:41:43.619Z,6.25
2022-11-06T21:44:17.654Z,6.26
2022-11-06T21:46:56.275Z,6.26
2022-11-06T21:49:23.647Z,6.29
2022-11-06T21:51:50.120Z,6.29
2022-11-06T21:54:37.401Z,6.31
2022-11-06T21:57:04.113Z,6.31
2022-11-06T21:59:30.677Z,6.30
2022-11-06T22:01:59.273Z,6.29
2022-11-06T22:04:26.162Z,6.29
2022-11-06T22:06:52.821Z,6.30
2022-11-06T22:09:25.385Z,6.29
2022-11-06T22:11:52.529Z,6.29
2022-11-06T22:14:19.183Z,6.31
2022-11-06T22:16:47.319Z,6.34
2022-11-06T22:19:15.625Z,6.33
2022-11-06T22:21:42.380Z,6.31
2022-11-06T22:24:13.225Z,6.31
2022-11-06T22:26:39.927Z,6.33
2022-11-06T22:29:09.468Z,6.33
2022-11-06T22:31:37.777Z,6.34
2022-11-06T22:34:05.059Z,6.35
2022-11-06T22:36:31.964Z,6.36
2022-11-06T22:39:01.714Z,6.40
2022-11-06T22:41:28.252Z,6.44
2022-11-06T22:43:58.827Z,6.44
2022-11-06T22:46:34.423Z,6.45
2022-11-06T22:49:01.370Z,6.46
2022-11-06T22:51:30.271Z,6.49
2022-11-06T22:54:01.541Z,6.49
2022-11-06T22:56:29.517Z,6.56
2022-11-06T22:59:07.444Z,6.53
2022-11-06T23:01:38.792Z,6.53
2022-11-06T23:04:15.332Z,6.50
2022-11-06T23:06:43.174Z,6.51
2022-11-06T23:09:14.404Z,6.51
2022-11-06T23:11:43.481Z,6.52
2022-11-06T23:14:09.978Z,6.52
2022-11-06T23:16:55.552Z,6.54
2022-11-06T23:19:25.319Z,6.55
2022-11-06T23:21:52.569Z,6.55
2022-11-06T23:24:21.367Z,6.54
2022-11-06T23:26:47.816Z,6.56
2022-11-06T23:29:14.320Z,6.58
2022-11-06T23:31:43.381Z,6.62
2022-11-06T23:34:09.840Z,6.66
2022-11-06T23:36:36.371Z,6.66
2022-11-06T23:39:05.072Z,6.63
2022-11-06T23:41:45.783Z,6.58
2022-11-06T23:44:34.494Z,6.53
2022-11-06T23:47:03.547Z,6.44
2022-11-06T23:49:30.063Z,6.35
2022-11-06T23:52:01.366Z,6.27
2022-11-06T23:54:27.808Z,6.22
2022-11-06T23:56:54.329Z,6.15
2022-11-06T23:59:21.202Z,6.08
